createdAt,value
2019-02-08T00:00:20.959Z,77.83
2019-02-08T00:01:25.022Z,77.92
2019-02-08T00:02:28.469Z,77.71
2019-02-08T00:03:31.967Z,77.76
2019-02-08T00:04:35.750Z,77.73
2019-02-08T00:05:39.260Z,77.90
2019-02-08T00:06:42.826Z,77.96
2019-02-08T00:07:46.326Z,78.24
2019-02-08T00:08:49.890Z,78.45
2019-02-08T00:09:53.380Z,78.64
2019-02-08T00:10:56.829Z,79.01
2019-02-08T00:12:00.444Z,79.09
2019-02-08T00:13:04.034Z,79.16
2019-02-08T00:14:07.627Z,79.23
2019-02-08T00:15:13.645Z,79.00
2019-02-08T00:16:17.253Z,78.82
2019-02-08T00:17:21.029Z,78.92
2019-02-08T00:18:24.527Z,79.06
2019-02-08T00:19:28.023Z,78.98
2019-02-08T00:20:31.602Z,78.93
2019-02-08T00:21:35.177Z,78.73
2019-02-08T00:22:38.768Z,78.70
2019-02-08T00:23:42.273Z,78.58
2019-02-08T00:24:45.698Z,78.67
2019-02-08T00:25:49.199Z,78.72
2019-02-08T00:26:52.719Z,78.84
2019-02-08T00:27:56.237Z,78.67
2019-02-08T00:28:59.746Z,78.39
2019-02-08T00:30:03.905Z,78.69
2019-02-08T00:31:07.668Z,78.98
2019-02-08T00:32:11.181Z,79.04
2019-02-08T00:33:14.680Z,79.03
2019-02-08T00:34:18.112Z,78.98
2019-02-08T00:35:21.774Z,78.77
2019-02-08T00:36:25.203Z,78.99
2019-02-08T00:37:28.669Z,79.02
2019-02-08T00:38:32.123Z,78.98
2019-02-08T00:39:35.618Z,78.68
2019-02-08T00:40:39.114Z,78.58
2019-02-08T00:41:42.619Z,78.51
2019-02-08T00:42:46.217Z,78.29
2019-02-08T00:43:49.945Z,78.08
2019-02-08T00:44:53.370Z,77.99
2019-02-08T00:45:56.860Z,77.98
2019-02-08T00:47:00.359Z,77.79
2019-02-08T00:48:04.377Z,77.88
2019-02-08T00:49:07.870Z,77.91
2019-02-08T00:50:14.343Z,78.00
2019-02-08T00:51:17.772Z,78.20
2019-02-08T00:52:21.233Z,78.09
2019-02-08T00:53:24.709Z,78.11
2019-02-08T00:54:28.140Z,77.90
2019-02-08T00:55:31.580Z,77.88
2019-02-08T00:56:35.360Z,78.00
2019-02-08T00:57:38.916Z,78.03
2019-02-08T00:58:42.466Z,77.99
2019-02-08T00:59:45.956Z,77.97
2019-02-08T01:00:49.523Z,77.74
2019-02-08T01:01:52.947Z,77.77
2019-02-08T01:02:56.478Z,77.42
2019-02-08T01:03:59.945Z,77.42
2019-02-08T01:05:04.109Z,77.40
2019-02-08T01:06:07.694Z,77.45
2019-02-08T01:07:11.187Z,77.18
2019-02-08T01:08:14.706Z,77.08
2019-02-08T01:09:18.302Z,77.14
2019-02-08T01:10:27.163Z,77.36
2019-02-08T01:11:30.726Z,77.48
2019-02-08T01:12:34.229Z,77.59
2019-02-08T01:13:37.672Z,77.57
2019-02-08T01:14:41.100Z,77.63
2019-02-08T01:15:44.660Z,77.17
2019-02-08T01:16:48.110Z,77.19
2019-02-08T01:17:51.676Z,77.24
2019-02-08T01:18:55.139Z,77.25
2019-02-08T01:19:58.626Z,77.38
2019-02-08T01:21:02.127Z,77.27
2019-02-08T01:22:05.722Z,77.29
2019-02-08T01:23:09.352Z,77.52
2019-02-08T01:24:12.791Z,77.53
2019-02-08T01:25:18.469Z,77.59
2019-02-08T01:26:21.951Z,77.38
2019-02-08T01:27:25.445Z,77.30
2019-02-08T01:28:28.956Z,77.05
2019-02-08T01:29:32.671Z,76.91
2019-02-08T01:30:36.138Z,77.13
2019-02-08T01:31:39.565Z,77.21
2019-02-08T01:32:43.054Z,77.28
2019-02-08T01:33:46.564Z,77.37
2019-02-08T01:34:50.016Z,77.44
2019-02-08T01:35:53.522Z,77.22
2019-02-08T01:36:56.952Z,77.04
2019-02-08T01:38:01.224Z,77.17
2019-02-08T01:39:06.885Z,76.85
2019-02-08T01:40:16.099Z,77.01
2019-02-08T01:41:19.588Z,76.96
2019-02-08T01:42:23.090Z,76.91
2019-02-08T01:43:26.587Z,76.85
2019-02-08T01:44:30.172Z,76.84
2019-02-08T01:45:33.881Z,77.00
2019-02-08T01:46:37.374Z,76.98
2019-02-08T01:47:40.866Z,76.77
2019-02-08T01:48:44.431Z,76.38
2019-02-08T01:49:47.936Z,76.28
2019-02-08T01:50:51.384Z,76.38
2019-02-08T01:51:54.883Z,76.08
2019-02-08T01:52:58.522Z,75.93
2019-02-08T01:54:01.953Z,75.79
2019-02-08T01:55:07.231Z,75.23
2019-02-08T01:56:10.646Z,75.39
2019-02-08T01:57:14.066Z,75.48
2019-02-08T01:58:17.563Z,75.37
2019-02-08T01:59:20.989Z,75.13
2019-02-08T02:00:27.266Z,75.50
2019-02-08T02:01:30.832Z,75.88
2019-02-08T02:02:34.258Z,76.01
2019-02-08T02:03:37.749Z,76.15
2019-02-08T02:04:41.170Z,75.99
2019-02-08T02:05:44.761Z,75.79
2019-02-08T02:06:48.256Z,75.67
2019-02-08T02:07:51.956Z,75.97
2019-02-08T02:08:55.387Z,76.02
2019-02-08T02:09:58.820Z,76.29
2019-02-08T02:11:02.354Z,76.28
2019-02-08T02:12:05.869Z,76.10
2019-02-08T02:13:10.322Z,76.06
2019-02-08T02:14:13.825Z,75.93
2019-02-08T02:15:17.584Z,75.91
2019-02-08T02:16:21.091Z,75.93
2019-02-08T02:17:24.626Z,75.88
2019-02-08T02:18:28.099Z,75.81
2019-02-08T02:19:31.590Z,75.51
2019-02-08T02:20:37.535Z,75.57
2019-02-08T02:21:41.053Z,75.62
2019-02-08T02:22:44.550Z,75.54
2019-02-08T02:23:47.961Z,75.39
2019-02-08T02:24:51.394Z,75.44
2019-02-08T02:25:54.972Z,75.69
2019-02-08T02:26:58.406Z,75.64
2019-02-08T02:28:01.894Z,75.58
2019-02-08T02:29:05.387Z,75.41
2019-02-08T02:30:17.707Z,75.16
2019-02-08T02:31:21.169Z,74.81
2019-02-08T02:32:24.685Z,74.37
2019-02-08T02:33:28.107Z,74.52
2019-02-08T02:34:31.621Z,74.51
2019-02-08T02:35:35.186Z,74.47
2019-02-08T02:36:38.703Z,74.39
2019-02-08T02:37:42.230Z,74.12
2019-02-08T02:38:45.645Z,73.78
2019-02-08T02:39:49.131Z,74.04
2019-02-08T02:40:52.721Z,74.11
2019-02-08T02:41:56.148Z,74.16
2019-02-08T02:42:59.731Z,73.74
2019-02-08T02:44:03.225Z,73.74
2019-02-08T02:45:15.718Z,73.85
2019-02-08T02:46:19.279Z,73.87
2019-02-08T02:47:22.725Z,73.86
2019-02-08T02:48:26.172Z,73.90
2019-02-08T02:49:29.656Z,73.73
2019-02-08T02:50:33.221Z,73.76
2019-02-08T02:51:36.743Z,73.84
2019-02-08T02:52:40.253Z,73.67
2019-02-08T02:53:43.775Z,73.73
2019-02-08T02:54:47.261Z,73.70
2019-02-08T02:55:50.689Z,73.70
2019-02-08T02:56:54.108Z,73.62
2019-02-08T02:57:57.915Z,73.62
2019-02-08T02:59:01.490Z,73.85
2019-02-08T03:00:10.552Z,73.78
2019-02-08T03:01:13.978Z,73.72
2019-02-08T03:02:17.401Z,73.77
2019-02-08T03:03:20.854Z,73.89
2019-02-08T03:04:24.413Z,73.82
2019-02-08T03:05:28.378Z,73.86
2019-02-08T03:06:31.809Z,73.90
2019-02-08T03:07:35.322Z,73.84
2019-02-08T03:08:39.740Z,73.94
2019-02-08T03:09:43.320Z,74.20
2019-02-08T03:10:46.897Z,74.13
2019-02-08T03:11:50.317Z,74.11
2019-02-08T03:12:53.878Z,73.93
2019-02-08T03:13:57.405Z,73.81
2019-02-08T03:15:00.905Z,73.67
2019-02-08T03:16:04.578Z,73.42
2019-02-08T03:17:08.075Z,73.61
2019-02-08T03:18:11.834Z,73.71
2019-02-08T03:19:15.352Z,73.78
2019-02-08T03:20:20.321Z,73.67
2019-02-08T03:21:23.803Z,73.59
2019-02-08T03:22:27.388Z,73.64
2019-02-08T03:23:30.840Z,73.66
2019-02-08T03:24:34.271Z,73.63
2019-02-08T03:25:37.831Z,73.62
2019-02-08T03:26:41.389Z,73.70
2019-02-08T03:27:44.896Z,73.70
2019-02-08T03:28:48.406Z,73.54
2019-02-08T03:29:51.834Z,73.52
2019-02-08T03:30:56.645Z,73.43
2019-02-08T03:32:00.073Z,73.44
2019-02-08T03:33:03.632Z,73.37
2019-02-08T03:34:07.238Z,73.36
2019-02-08T03:35:13.881Z,73.43
2019-02-08T03:36:17.292Z,73.40
2019-02-08T03:37:20.711Z,73.30
2019-02-08T03:38:24.236Z,73.22
2019-02-08T03:39:27.730Z,73.16
2019-02-08T03:40:31.896Z,73.14
2019-02-08T03:41:35.459Z,73.21
2019-02-08T03:42:39.125Z,73.11
2019-02-08T03:43:42.584Z,73.11
2019-02-08T03:44:45.997Z,73.08
2019-02-08T03:45:51.145Z,72.98
2019-02-08T03:46:54.638Z,73.03
2019-02-08T03:47:58.087Z,72.93
2019-02-08T03:49:01.600Z,72.73
2019-02-08T03:50:11.572Z,72.93
2019-02-08T03:51:15.062Z,72.98
2019-02-08T03:52:18.494Z,73.18
2019-02-08T03:53:22.091Z,73.72
2019-02-08T03:54:25.593Z,73.97
2019-02-08T03:55:29.159Z,74.27
2019-02-08T03:56:32.731Z,74.14
2019-02-08T03:57:36.293Z,74.17
2019-02-08T03:58:39.735Z,74.54
2019-02-08T03:59:43.240Z,74.79
2019-02-08T04:00:48.551Z,74.76
2019-02-08T04:01:52.043Z,74.71
2019-02-08T04:02:55.620Z,74.86
2019-02-08T04:04:15.473Z,74.65
2019-02-08T04:05:19.043Z,74.61
2019-02-08T04:06:22.472Z,74.20
2019-02-08T04:07:25.959Z,74.23
2019-02-08T04:08:29.449Z,74.26
2019-02-08T04:09:32.966Z,74.43
2019-02-08T04:10:36.483Z,74.29
2019-02-08T04:11:39.979Z,74.05
2019-02-08T04:12:43.479Z,73.79
2019-02-08T04:13:46.965Z,73.61
2019-02-08T04:14:50.556Z,73.10
2019-02-08T04:15:54.091Z,73.23
2019-02-08T04:16:57.549Z,73.39
2019-02-08T04:18:01.011Z,73.43
2019-02-08T04:19:04.761Z,73.33
2019-02-08T04:20:11.149Z,73.04
2019-02-08T04:21:14.600Z,73.04
2019-02-08T04:22:18.032Z,73.28
2019-02-08T04:23:21.460Z,73.41
2019-02-08T04:24:30.062Z,73.24
2019-02-08T04:25:30.123Z,72.75
2019-02-08T04:26:35.181Z,72.75
2019-02-08T04:27:38.636Z,72.65
2019-02-08T04:28:42.118Z,72.82
2019-02-08T04:29:45.553Z,72.88
2019-02-08T04:30:48.999Z,72.74
2019-02-08T04:31:52.436Z,72.44
2019-02-08T04:32:56.279Z,72.42
2019-02-08T04:33:59.785Z,72.30
2019-02-08T04:35:03.348Z,72.36
2019-02-08T04:36:06.853Z,72.24
2019-02-08T04:37:10.346Z,72.47
2019-02-08T04:38:13.785Z,72.49
2019-02-08T04:39:17.350Z,72.39
2019-02-08T04:40:25.082Z,72.33
2019-02-08T04:41:28.528Z,72.25
2019-02-08T04:42:31.953Z,72.06
2019-02-08T04:43:35.456Z,72.00
2019-02-08T04:44:38.884Z,72.08
2019-02-08T04:45:42.382Z,72.22
2019-02-08T04:46:45.924Z,72.47
2019-02-08T04:47:49.691Z,72.48
2019-02-08T04:48:53.112Z,72.54
2019-02-08T04:49:56.560Z,72.73
2019-02-08T04:50:59.969Z,72.94
2019-02-08T04:52:03.579Z,73.19
2019-02-08T04:53:07.053Z,73.13
2019-02-08T04:54:10.623Z,73.03
2019-02-08T04:55:14.516Z,73.08
2019-02-08T04:56:18.008Z,73.26
2019-02-08T04:57:21.527Z,73.19
2019-02-08T04:58:24.956Z,73.05
2019-02-08T04:59:28.384Z,73.06
2019-02-08T05:00:34.068Z,72.95
2019-02-08T05:01:37.483Z,72.87
2019-02-08T05:02:40.944Z,72.69
2019-02-08T05:03:44.422Z,72.51
2019-02-08T05:04:48.019Z,72.66
2019-02-08T05:05:51.507Z,72.55
2019-02-08T05:06:55.010Z,72.37
2019-02-08T05:07:58.517Z,72.59
2019-02-08T05:09:01.942Z,72.56
2019-02-08T05:10:11.097Z,72.60
2019-02-08T05:11:14.524Z,72.42
2019-02-08T05:12:17.952Z,72.57
2019-02-08T05:13:21.477Z,72.59
2019-02-08T05:14:24.901Z,72.53
2019-02-08T05:15:28.780Z,72.65
2019-02-08T05:16:32.273Z,72.66
2019-02-08T05:17:35.774Z,72.74
2019-02-08T05:18:39.222Z,72.88
2019-02-08T05:19:42.715Z,72.84
2019-02-08T05:20:46.236Z,72.99
2019-02-08T05:21:49.659Z,73.01
2019-02-08T05:22:53.427Z,73.02
2019-02-08T05:23:56.877Z,72.74
2019-02-08T05:25:00.471Z,72.68
2019-02-08T05:26:03.943Z,72.60
2019-02-08T05:27:07.525Z,72.49
2019-02-08T05:28:10.967Z,72.56
2019-02-08T05:29:14.483Z,72.61
2019-02-08T05:30:26.746Z,72.52
2019-02-08T05:31:30.201Z,72.57
2019-02-08T05:32:33.610Z,72.38
2019-02-08T05:33:37.125Z,72.24
2019-02-08T05:34:40.629Z,72.16
2019-02-08T05:35:44.129Z,72.42
2019-02-08T05:36:47.561Z,72.45
2019-02-08T05:37:51.129Z,72.10
2019-02-08T05:38:54.558Z,72.29
2019-02-08T05:39:58.073Z,72.18
2019-02-08T05:41:01.569Z,72.19
2019-02-08T05:42:05.130Z,72.18
2019-02-08T05:43:08.616Z,72.20
2019-02-08T05:44:12.137Z,71.95
2019-02-08T05:45:18.614Z,71.96
2019-02-08T05:46:22.043Z,71.93
2019-02-08T05:47:25.495Z,71.97
2019-02-08T05:48:29.000Z,71.92
2019-02-08T05:49:32.544Z,71.81
2019-02-08T05:50:36.036Z,71.82
2019-02-08T05:51:39.459Z,71.80
2019-02-08T05:52:43.093Z,71.84
2019-02-08T05:53:46.522Z,71.61
2019-02-08T05:54:54.336Z,71.65
2019-02-08T05:55:55.260Z,71.72
2019-02-08T05:56:58.744Z,71.41
2019-02-08T05:58:02.245Z,71.59
2019-02-08T05:59:05.805Z,71.71
2019-02-08T06:00:28.497Z,71.54
2019-02-08T06:01:31.921Z,71.52
2019-02-08T06:02:35.345Z,71.66
2019-02-08T06:03:38.930Z,71.73
2019-02-08T06:04:43.578Z,71.76
2019-02-08T06:05:47.210Z,71.72
2019-02-08T06:06:52.994Z,71.74
2019-02-08T06:07:55.816Z,71.78
2019-02-08T06:08:59.704Z,71.74
2019-02-08T06:10:03.219Z,71.76
2019-02-08T06:11:06.741Z,71.66
2019-02-08T06:12:10.297Z,71.64
2019-02-08T06:13:13.892Z,71.64
2019-02-08T06:14:17.325Z,71.71
2019-02-08T06:15:22.717Z,71.86
2019-02-08T06:16:26.293Z,71.78
2019-02-08T06:17:29.783Z,71.91
2019-02-08T06:18:33.473Z,71.76
2019-02-08T06:19:37.023Z,71.78
2019-02-08T06:20:40.728Z,71.56
2019-02-08T06:21:44.179Z,71.51
2019-02-08T06:22:47.747Z,71.68
2019-02-08T06:23:51.179Z,71.62
2019-02-08T06:25:02.891Z,71.66
2019-02-08T06:25:59.836Z,71.65
2019-02-08T06:27:03.248Z,71.41
2019-02-08T06:28:07.107Z,71.32
2019-02-08T06:29:10.682Z,71.50
2019-02-08T06:30:17.149Z,71.45
2019-02-08T06:31:20.607Z,71.43
2019-02-08T06:32:24.095Z,71.53
2019-02-08T06:33:27.535Z,71.61
2019-02-08T06:34:31.027Z,71.70
2019-02-08T06:35:34.696Z,71.68
2019-02-08T06:36:38.144Z,72.39
2019-02-08T06:37:44.408Z,73.08
2019-02-08T06:38:47.028Z,73.33
2019-02-08T06:39:50.575Z,73.26
2019-02-08T06:40:54.075Z,73.29
2019-02-08T06:41:57.619Z,73.17
2019-02-08T06:43:01.197Z,73.04
2019-02-08T06:44:04.876Z,72.84
2019-02-08T06:45:11.368Z,72.67
2019-02-08T06:46:15.036Z,72.44
2019-02-08T06:47:18.568Z,72.31
2019-02-08T06:48:22.159Z,72.31
2019-02-08T06:49:25.582Z,72.27
2019-02-08T06:50:29.312Z,72.37
2019-02-08T06:51:32.743Z,72.32
2019-02-08T06:52:36.359Z,72.72
2019-02-08T06:53:39.945Z,72.91
2019-02-08T06:54:43.483Z,73.15
2019-02-08T06:55:46.941Z,73.71
2019-02-08T06:57:01.151Z,73.98
2019-02-08T06:58:07.964Z,73.80
2019-02-08T06:59:13.094Z,73.55
2019-02-08T07:00:23.327Z,73.17
2019-02-08T07:01:40.607Z,72.96
2019-02-08T07:02:51.657Z,73.00
2019-02-08T07:03:59.828Z,72.70
2019-02-08T07:05:05.165Z,72.58
2019-02-08T07:06:16.261Z,73.46
2019-02-08T07:07:24.128Z,73.58
2019-02-08T07:08:29.216Z,73.36
2019-02-08T07:09:37.386Z,72.92
2019-02-08T07:10:42.441Z,72.64
2019-02-08T07:12:05.651Z,72.90
2019-02-08T07:13:10.834Z,72.35
2019-02-08T07:14:28.011Z,72.45
2019-02-08T07:15:33.219Z,72.30
2019-02-08T07:16:38.354Z,71.97
2019-02-08T07:17:43.418Z,72.07
2019-02-08T07:18:48.508Z,72.18
2019-02-08T07:19:59.337Z,72.15
2019-02-08T07:21:07.533Z,72.19
2019-02-08T07:22:12.648Z,72.32
2019-02-08T07:23:17.801Z,72.51
2019-02-08T07:24:28.864Z,72.39
2019-02-08T07:25:39.897Z,72.45
2019-02-08T07:26:45.110Z,72.34
2019-02-08T07:27:50.301Z,72.18
2019-02-08T07:28:55.364Z,72.55
2019-02-08T07:30:03.404Z,72.70
2019-02-08T07:31:08.603Z,72.05
2019-02-08T07:32:28.625Z,72.05
2019-02-08T07:33:36.146Z,72.11
2019-02-08T07:34:44.369Z,72.03
2019-02-08T07:35:49.880Z,72.42
2019-02-08T07:36:55.188Z,72.37
2019-02-08T07:38:01.588Z,72.30
2019-02-08T07:39:12.374Z,72.00
2019-02-08T07:40:26.165Z,71.54
2019-02-08T07:41:38.053Z,71.94
2019-02-08T07:42:59.358Z,71.61
2019-02-08T07:44:07.848Z,71.81
2019-02-08T07:45:13.804Z,71.79
2019-02-08T07:46:19.618Z,71.71
2019-02-08T07:47:40.312Z,71.67
2019-02-08T07:48:58.082Z,71.66
2019-02-08T07:50:03.283Z,71.48
2019-02-08T07:51:14.008Z,71.01
2019-02-08T07:52:19.217Z,71.20
2019-02-08T07:53:40.653Z,71.16
2019-02-08T07:54:57.824Z,71.11
2019-02-08T07:56:06.016Z,70.90
2019-02-08T07:57:17.204Z,71.12
2019-02-08T07:58:37.537Z,71.05
2019-02-08T07:59:51.638Z,71.19
2019-02-08T08:01:00.972Z,70.89
2019-02-08T08:02:12.122Z,70.50
2019-02-08T08:03:29.506Z,70.64
2019-02-08T08:04:37.937Z,70.93
2019-02-08T08:05:44.032Z,70.47
2019-02-08T08:06:52.158Z,70.38
2019-02-08T08:07:57.463Z,70.20
2019-02-08T08:09:19.149Z,70.06
2019-02-08T08:10:27.415Z,70.11
2019-02-08T08:11:32.639Z,69.99
2019-02-08T08:12:37.848Z,69.88
2019-02-08T08:13:45.448Z,69.71
2019-02-08T08:15:05.573Z,69.55
2019-02-08T08:16:23.240Z,69.06
2019-02-08T08:17:37.196Z,69.16
2019-02-08T08:18:59.060Z,68.25
2019-02-08T08:20:21.228Z,68.70
2019-02-08T08:21:29.183Z,68.58
2019-02-08T08:22:43.416Z,68.19
2019-02-08T08:23:58.877Z,68.44
2019-02-08T08:25:04.580Z,68.17
2019-02-08T08:26:27.795Z,68.04
2019-02-08T08:27:33.530Z,67.76
2019-02-08T08:28:38.725Z,67.70
2019-02-08T08:29:44.162Z,67.08
2019-02-08T08:30:52.148Z,67.33
2019-02-08T08:32:01.640Z,67.36
2019-02-08T08:33:15.480Z,67.74
2019-02-08T08:34:39.632Z,67.12
2019-02-08T08:36:01.006Z,67.60
2019-02-08T08:37:31.683Z,67.58
2019-02-08T08:38:44.126Z,67.06
2019-02-08T08:40:05.437Z,67.30
2019-02-08T08:41:11.910Z,67.07
2019-02-08T08:42:33.356Z,66.95
2019-02-08T08:43:39.881Z,67.24
2019-02-08T08:45:02.501Z,67.26
2019-02-08T08:46:32.769Z,67.12
2019-02-08T08:47:48.012Z,66.31
2019-02-08T08:49:15.334Z,66.41
2019-02-08T08:50:49.910Z,66.05
2019-02-08T08:51:56.387Z,65.69
2019-02-08T08:53:34.139Z,65.90
2019-02-08T08:54:40.636Z,65.16
2019-02-08T08:55:49.780Z,64.14
2019-02-08T08:57:07.869Z,64.69
2019-02-08T08:58:23.249Z,64.40
2019-02-08T08:59:44.571Z,64.94
2019-02-08T09:00:53.507Z,64.78
2019-02-08T09:02:11.619Z,64.30
2019-02-08T09:03:35.715Z,64.15
2019-02-08T09:05:03.007Z,64.55
2019-02-08T09:06:42.114Z,63.18
2019-02-08T09:08:09.318Z,63.31
2019-02-08T09:09:27.582Z,63.35
2019-02-08T09:10:48.530Z,63.23
2019-02-08T09:12:20.080Z,63.40
2019-02-08T09:13:41.230Z,62.90
2019-02-08T09:14:59.505Z,63.31
2019-02-08T09:16:14.641Z,63.32
2019-02-08T09:17:39.010Z,62.61
2019-02-08T09:19:12.036Z,62.23
2019-02-08T09:20:43.682Z,62.62
2019-02-08T09:22:13.635Z,62.74
2019-02-08T09:23:20.114Z,62.10
2019-02-08T09:24:35.082Z,61.90
2019-02-08T09:26:00.709Z,62.05
2019-02-08T09:27:18.971Z,61.75
2019-02-08T09:28:57.887Z,61.47
2019-02-08T09:30:22.059Z,61.46
2019-02-08T09:31:36.857Z,61.28
2019-02-08T09:33:01.205Z,60.58
2019-02-08T09:34:25.545Z,61.12
2019-02-08T09:35:51.131Z,60.81
2019-02-08T09:37:12.055Z,59.83
2019-02-08T09:38:33.182Z,60.16
2019-02-08T09:39:48.037Z,60.16
2019-02-08T09:41:12.330Z,60.48
2019-02-08T09:42:51.492Z,59.64
2019-02-08T09:44:30.438Z,59.02
2019-02-08T09:45:45.739Z,58.70
2019-02-08T09:47:00.944Z,58.94
2019-02-08T09:48:19.320Z,58.86
2019-02-08T09:49:42.188Z,59.41
2019-02-08T09:51:07.356Z,59.75
2019-02-08T09:52:19.832Z,59.12
2019-02-08T09:53:48.516Z,58.23
2019-02-08T09:55:29.426Z,56.97
2019-02-08T09:56:56.832Z,58.09
2019-02-08T09:58:23.881Z,58.27
2019-02-08T09:59:54.201Z,58.60
2019-02-08T10:01:23.000Z,58.44
2019-02-08T10:02:50.078Z,58.89
2019-02-08T10:04:11.482Z,57.93
2019-02-08T10:05:32.851Z,58.05
2019-02-08T10:06:51.253Z,57.95
2019-02-08T10:08:25.107Z,57.96
2019-02-08T10:09:34.241Z,58.11
2019-02-08T10:11:13.287Z,57.30
2019-02-08T10:12:37.695Z,56.99
2019-02-08T10:13:55.868Z,57.31
2019-02-08T10:15:18.651Z,57.38
2019-02-08T10:16:47.180Z,56.99
2019-02-08T10:18:18.790Z,56.63
2019-02-08T10:19:49.131Z,56.34
2019-02-08T10:21:27.958Z,56.91
2019-02-08T10:22:46.154Z,56.92
2019-02-08T10:23:58.248Z,56.45
2019-02-08T10:25:16.583Z,56.23
2019-02-08T10:26:23.076Z,56.47
2019-02-08T10:27:43.944Z,55.47
2019-02-08T10:29:11.318Z,54.59
2019-02-08T10:30:34.392Z,55.91
2019-02-08T10:32:12.261Z,54.72
2019-02-08T10:33:51.394Z,55.53
2019-02-08T10:35:09.697Z,56.04
2019-02-08T10:36:47.152Z,55.91
2019-02-08T10:38:14.193Z,54.89
2019-02-08T10:39:29.589Z,53.70
2019-02-08T10:41:01.353Z,54.37
2019-02-08T10:42:13.609Z,53.07
2019-02-08T10:43:44.020Z,53.44
2019-02-08T10:44:56.157Z,52.49
2019-02-08T10:46:14.606Z,52.98
2019-02-08T10:47:35.913Z,53.79
2019-02-08T10:48:58.436Z,53.16
2019-02-08T10:50:21.072Z,51.18
2019-02-08T10:51:30.050Z,52.50
2019-02-08T10:53:02.059Z,51.71
2019-02-08T10:54:27.904Z,52.89
2019-02-08T10:56:15.028Z,52.05
2019-02-08T10:57:24.254Z,52.37
2019-02-08T10:58:55.882Z,51.26
2019-02-08T11:00:36.629Z,51.96
2019-02-08T11:01:57.822Z,51.00
2019-02-08T11:03:12.807Z,50.91
2019-02-08T11:04:41.554Z,49.62
2019-02-08T11:06:04.348Z,49.04
2019-02-08T11:07:28.775Z,49.31
2019-02-08T11:09:09.584Z,48.64
2019-02-08T11:10:28.137Z,49.12
2019-02-08T11:11:49.747Z,48.67
2019-02-08T11:13:13.962Z,48.58
2019-02-08T11:14:36.623Z,49.36
2019-02-08T11:15:52.011Z,48.35
2019-02-08T11:17:16.244Z,48.38
2019-02-08T11:18:39.982Z,49.14
2019-02-08T11:19:42.261Z,48.71
2019-02-08T11:20:45.687Z,47.74
2019-02-08T11:21:50.059Z,47.97
2019-02-08T11:22:53.511Z,48.47
2019-02-08T11:23:56.996Z,48.25
2019-02-08T11:25:00.554Z,45.21
2019-02-08T11:26:04.959Z,45.52
2019-02-08T11:27:08.518Z,45.05
2019-02-08T11:28:11.982Z,45.94
2019-02-08T11:29:15.488Z,46.07
2019-02-08T11:30:20.283Z,47.06
2019-02-08T11:31:23.796Z,47.38
2019-02-08T11:32:42.550Z,47.48
2019-02-08T11:33:32.599Z,46.79
2019-02-08T11:34:36.119Z,47.00
2019-02-08T11:35:39.556Z,47.41
2019-02-08T11:36:43.118Z,47.68
2019-02-08T11:37:46.783Z,47.72
2019-02-08T11:38:50.232Z,47.30
2019-02-08T11:39:53.705Z,48.00
2019-02-08T11:40:57.133Z,47.91
2019-02-08T11:42:00.580Z,46.74
2019-02-08T11:43:04.140Z,46.25
2019-02-08T11:44:07.723Z,46.19
2019-02-08T11:45:14.078Z,44.10
2019-02-08T11:46:17.508Z,45.58
2019-02-08T11:47:20.934Z,45.94
2019-02-08T11:48:24.498Z,46.00
2019-02-08T11:49:27.957Z,45.41
2019-02-08T11:50:31.457Z,45.95
2019-02-08T11:51:34.907Z,45.11
2019-02-08T11:52:38.408Z,44.79
2019-02-08T11:53:41.839Z,42.80
2019-02-08T11:54:45.285Z,44.38
2019-02-08T11:55:48.753Z,44.52
2019-02-08T11:56:52.330Z,42.78
2019-02-08T11:57:55.818Z,42.48
2019-02-08T11:58:59.392Z,42.64
2019-02-08T12:00:04.053Z,42.76
2019-02-08T12:01:07.614Z,42.87
2019-02-08T12:02:11.109Z,40.99
2019-02-08T12:03:14.528Z,42.38
2019-02-08T12:04:18.297Z,42.87
2019-02-08T12:05:21.818Z,41.68
2019-02-08T12:06:25.385Z,41.73
2019-02-08T12:07:28.817Z,41.49
2019-02-08T12:08:32.309Z,41.49
2019-02-08T12:09:35.813Z,41.84
2019-02-08T12:10:39.399Z,41.84
2019-02-08T12:11:44.305Z,41.37
2019-02-08T12:12:47.792Z,41.37
2019-02-08T12:13:51.295Z,41.15
2019-02-08T12:14:54.795Z,41.15
2019-02-08T12:15:58.475Z,41.35
2019-02-08T12:17:01.925Z,41.05
2019-02-08T12:18:05.495Z,41.38
2019-02-08T12:19:08.993Z,41.66
2019-02-08T12:20:12.667Z,41.68
2019-02-08T12:21:16.273Z,41.27
2019-02-08T12:22:19.791Z,39.99
2019-02-08T12:23:23.287Z,40.72
2019-02-08T12:24:26.796Z,40.10
2019-02-08T12:25:30.298Z,38.66
2019-02-08T12:26:37.875Z,38.83
2019-02-08T12:27:39.153Z,39.09
2019-02-08T12:28:42.663Z,38.20
2019-02-08T12:29:46.299Z,39.47
2019-02-08T12:30:50.048Z,39.27
2019-02-08T12:31:53.583Z,38.86
2019-02-08T12:32:57.156Z,38.50
2019-02-08T12:34:00.595Z,37.39
2019-02-08T12:35:05.346Z,36.69
2019-02-08T12:36:08.837Z,37.73
2019-02-08T12:37:12.294Z,37.26
2019-02-08T12:38:15.813Z,37.28
2019-02-08T12:39:19.327Z,36.47
2019-02-08T12:40:22.762Z,35.82
2019-02-08T12:41:26.263Z,35.02
2019-02-08T12:42:29.704Z,32.58
2019-02-08T12:43:33.231Z,30.93
2019-02-08T12:44:36.786Z,30.75
2019-02-08T12:45:40.449Z,30.23
2019-02-08T12:46:43.949Z,28.70
2019-02-08T12:47:47.472Z,28.02
2019-02-08T12:48:51.050Z,25.81
2019-02-08T12:49:54.478Z,25.90
2019-02-08T12:50:58.048Z,25.63
2019-02-08T12:52:01.612Z,26.02
2019-02-08T12:53:05.418Z,23.83
2019-02-08T12:54:08.924Z,25.60
2019-02-08T12:55:15.090Z,25.98
2019-02-08T12:56:18.653Z,25.33
2019-02-08T12:57:22.075Z,26.88
2019-02-08T12:58:26.672Z,27.73
2019-02-08T12:59:30.451Z,29.05
2019-02-08T13:00:34.106Z,29.59
2019-02-08T13:01:38.049Z,30.00
2019-02-08T13:02:41.522Z,29.95
2019-02-08T13:03:45.110Z,29.59
2019-02-08T13:04:48.888Z,28.10
2019-02-08T13:05:52.396Z,29.84
2019-02-08T13:06:55.903Z,30.93
2019-02-08T13:07:59.481Z,30.65
2019-02-08T13:09:04.569Z,28.64
2019-02-08T13:10:11.281Z,28.65
2019-02-08T13:11:14.780Z,28.51
2019-02-08T13:12:18.204Z,28.79
2019-02-08T13:13:21.651Z,30.38
2019-02-08T13:14:25.276Z,30.98
2019-02-08T13:15:28.833Z,30.37
2019-02-08T13:16:32.332Z,29.92
2019-02-08T13:17:35.756Z,29.78
2019-02-08T13:18:39.269Z,27.88
2019-02-08T13:19:42.725Z,29.72
2019-02-08T13:20:46.219Z,29.16
2019-02-08T13:21:49.790Z,28.20
2019-02-08T13:22:53.307Z,28.83
2019-02-08T13:23:56.755Z,27.77
2019-02-08T13:25:00.197Z,28.87
2019-02-08T13:26:03.689Z,28.54
2019-02-08T13:27:07.260Z,27.17
2019-02-08T13:28:10.765Z,26.63
2019-02-08T13:29:14.217Z,26.92
2019-02-08T13:30:23.258Z,25.98
2019-02-08T13:31:26.694Z,25.45
2019-02-08T13:32:30.123Z,25.17
2019-02-08T13:33:33.688Z,24.85
2019-02-08T13:34:37.135Z,24.50
2019-02-08T13:35:40.588Z,24.11
2019-02-08T13:36:44.162Z,24.36
2019-02-08T13:37:47.589Z,23.74
2019-02-08T13:38:51.089Z,23.98
2019-02-08T13:39:54.661Z,23.75
2019-02-08T13:40:58.206Z,23.74
2019-02-08T13:42:01.675Z,22.54
2019-02-08T13:43:05.241Z,23.29
2019-02-08T13:44:08.743Z,23.56
2019-02-08T13:45:13.525Z,24.10
2019-02-08T13:46:17.109Z,23.58
2019-02-08T13:47:20.629Z,24.55
2019-02-08T13:48:24.210Z,23.96
2019-02-08T13:49:27.707Z,23.69
2019-02-08T13:50:32.592Z,23.51
2019-02-08T13:51:36.030Z,24.25
2019-02-08T13:52:39.595Z,25.03
2019-02-08T13:53:43.162Z,25.01
2019-02-08T13:54:46.595Z,25.18
2019-02-08T13:55:50.222Z,25.01
2019-02-08T13:57:00.505Z,25.26
2019-02-08T13:57:58.944Z,25.69
2019-02-08T13:59:02.440Z,25.60
2019-02-08T14:00:08.915Z,25.84
2019-02-08T14:01:12.370Z,25.59
2019-02-08T14:02:15.804Z,25.86
2019-02-08T14:03:19.241Z,25.09
2019-02-08T14:04:22.664Z,26.43
2019-02-08T14:05:26.233Z,26.57
2019-02-08T14:06:29.705Z,26.81
2019-02-08T14:07:33.139Z,27.06
2019-02-08T14:08:36.652Z,26.56
2019-02-08T14:09:40.166Z,27.60
2019-02-08T14:10:43.605Z,27.86
2019-02-08T14:11:47.071Z,27.95
2019-02-08T14:12:50.640Z,28.63
2019-02-08T14:13:54.158Z,29.30
2019-02-08T14:14:57.647Z,29.67
2019-02-08T14:16:01.079Z,29.97
2019-02-08T14:17:04.960Z,30.12
2019-02-08T14:18:08.535Z,29.84
2019-02-08T14:19:12.052Z,30.81
2019-02-08T14:20:18.328Z,30.96
2019-02-08T14:21:21.836Z,30.69
2019-02-08T14:22:25.449Z,30.95
2019-02-08T14:23:28.960Z,31.56
2019-02-08T14:24:33.008Z,31.64
2019-02-08T14:25:36.479Z,31.83
2019-02-08T14:26:40.016Z,32.59
2019-02-08T14:27:43.900Z,32.41
2019-02-08T14:28:47.502Z,32.52
2019-02-08T14:29:50.934Z,32.99